createdAt,value
2022-10-13T00:01:22.405Z,26.97
2022-10-13T00:03:51.441Z,22.70
2022-10-13T00:06:25.364Z,23.63
2022-10-13T00:08:54.427Z,28.77
2022-10-13T00:11:25.688Z,23.30
2022-10-13T00:13:57.246Z,26.97
2022-10-13T00:16:26.750Z,27.33
2022-10-13T00:18:55.092Z,23.43
2022-10-13T00:21:26.991Z,25.23
2022-10-13T00:23:55.689Z,26.73
2022-10-13T00:26:26.013Z,27.97
2022-10-13T00:28:55.603Z,24.00
2022-10-13T00:31:27.646Z,24.90
2022-10-13T00:33:57.162Z,26.00
2022-10-13T00:36:28.817Z,23.67
2022-10-13T00:38:57.338Z,26.17
2022-10-13T00:41:25.407Z,28.10
2022-10-13T00:44:02.518Z,25.03
2022-10-13T00:46:33.515Z,24.23
2022-10-13T00:49:08.038Z,28.83
2022-10-13T00:51:44.469Z,26.77
2022-10-13T00:54:20.572Z,26.73
2022-10-13T00:56:51.387Z,26.67
2022-10-13T00:59:27.345Z,29.33
2022-10-13T01:01:59.298Z,27.83
2022-10-13T01:04:33.228Z,27.93
2022-10-13T01:07:04.034Z,28.73
2022-10-13T01:09:37.582Z,30.37
2022-10-13T01:12:21.925Z,30.47
2022-10-13T01:15:03.013Z,25.47
2022-10-13T01:17:41.345Z,29.77
2022-10-13T01:20:42.698Z,30.87
2022-10-13T01:23:42.131Z,34.40
2022-10-13T01:26:42.673Z,27.57
2022-10-13T01:29:34.396Z,29.30
2022-10-13T01:32:14.929Z,31.97
2022-10-13T01:34:55.658Z,32.47
2022-10-13T01:37:34.777Z,31.87
2022-10-13T01:40:10.299Z,33.77
2022-10-13T01:42:46.961Z,32.42
2022-10-13T01:45:22.218Z,31.33
2022-10-13T01:47:52.918Z,35.13
2022-10-13T01:50:20.990Z,32.43
2022-10-13T01:52:51.924Z,30.17
2022-10-13T01:55:20.049Z,32.17
2022-10-13T01:57:47.935Z,32.27
2022-10-13T02:00:21.105Z,27.77
2022-10-13T02:03:09.056Z,30.47
2022-10-13T02:05:49.571Z,30.30
2022-10-13T02:08:28.372Z,30.33
2022-10-13T02:11:12.457Z,29.87
2022-10-13T02:13:46.277Z,29.97
2022-10-13T02:16:23.626Z,31.23
2022-10-13T02:18:53.398Z,32.77
2022-10-13T02:21:21.478Z,30.33
2022-10-13T02:23:50.130Z,29.87
2022-10-13T02:26:21.925Z,32.57
2022-10-13T02:28:58.537Z,23.67
2022-10-13T02:31:26.484Z,27.27
2022-10-13T02:33:55.550Z,28.27
2022-10-13T02:36:23.982Z,30.03
2022-10-13T02:38:51.876Z,28.30
2022-10-13T02:41:19.804Z,25.40
2022-10-13T02:43:47.652Z,27.70
2022-10-13T02:46:15.571Z,27.03
2022-10-13T02:48:44.677Z,26.73
2022-10-13T02:51:13.757Z,26.57
2022-10-13T02:53:41.502Z,25.47
2022-10-13T02:56:09.442Z,27.20
2022-10-13T02:58:38.099Z,28.73
2022-10-13T03:01:07.175Z,24.97
2022-10-13T03:03:36.184Z,27.77
2022-10-13T03:06:04.361Z,25.90
2022-10-13T03:08:35.376Z,29.73
2022-10-13T03:11:03.289Z,26.30
2022-10-13T03:13:31.063Z,27.33
2022-10-13T03:16:06.853Z,26.58
2022-10-13T03:18:35.212Z,27.80
2022-10-13T03:21:06.714Z,27.73
2022-10-13T03:23:35.838Z,26.73
2022-10-13T03:26:04.497Z,28.87
2022-10-13T03:28:32.391Z,28.30
2022-10-13T03:31:02.134Z,31.40
2022-10-13T03:33:29.957Z,30.50
2022-10-13T03:36:02.308Z,28.43
2022-10-13T03:38:32.259Z,26.90
2022-10-13T03:41:07.209Z,25.80
2022-10-13T03:43:35.769Z,27.23
2022-10-13T03:46:05.927Z,25.80
2022-10-13T03:48:36.255Z,24.47
2022-10-13T03:51:06.428Z,29.17
2022-10-13T03:53:34.989Z,24.30
2022-10-13T03:56:06.538Z,25.43
2022-10-13T03:58:36.457Z,29.73
2022-10-13T04:01:05.892Z,30.03
2022-10-13T04:03:34.951Z,29.93
2022-10-13T04:06:05.549Z,26.17
2022-10-13T04:08:34.436Z,24.90
2022-10-13T04:11:06.492Z,27.93
2022-10-13T04:13:34.713Z,25.77
2022-10-13T04:16:03.584Z,28.37
2022-10-13T04:18:32.093Z,27.53
2022-10-13T04:21:00.299Z,27.20
2022-10-13T04:23:29.272Z,26.67
2022-10-13T04:25:57.670Z,27.00
2022-10-13T04:28:26.927Z,23.80
2022-10-13T04:30:54.741Z,25.80
2022-10-13T04:33:22.516Z,29.47
2022-10-13T04:35:50.457Z,23.80
2022-10-13T04:38:18.293Z,26.50
2022-10-13T04:40:46.037Z,27.57
2022-10-13T04:43:15.753Z,25.60
2022-10-13T04:45:44.858Z,24.97
2022-10-13T04:48:12.850Z,26.00
2022-10-13T04:50:40.867Z,25.93
2022-10-13T04:53:08.655Z,24.87
2022-10-13T04:55:37.148Z,27.23
2022-10-13T04:58:04.979Z,24.60
2022-10-13T05:00:32.857Z,25.03
2022-10-13T05:03:02.033Z,25.30
2022-10-13T05:05:29.799Z,26.40
2022-10-13T05:07:57.537Z,22.57
2022-10-13T05:10:25.429Z,24.40
2022-10-13T05:12:53.836Z,24.77
2022-10-13T05:15:21.575Z,29.70
2022-10-13T05:17:49.521Z,25.37
2022-10-13T05:20:18.621Z,27.00
2022-10-13T05:22:46.407Z,29.63
2022-10-13T05:25:14.273Z,28.13
2022-10-13T05:27:42.142Z,22.93
2022-10-13T05:30:12.138Z,23.97
2022-10-13T05:32:40.265Z,25.03
2022-10-13T05:35:09.849Z,26.40
2022-10-13T05:37:42.650Z,24.10
2022-10-13T05:40:11.724Z,25.20
2022-10-13T05:42:39.604Z,24.70
2022-10-13T05:45:11.088Z,25.70
2022-10-13T05:47:39.012Z,25.23
2022-10-13T05:50:08.426Z,24.83
2022-10-13T05:52:37.851Z,22.53
2022-10-13T05:55:11.142Z,23.20
2022-10-13T05:57:44.334Z,24.10
2022-10-13T06:00:15.920Z,22.13
2022-10-13T06:02:49.543Z,22.97
2022-10-13T06:05:21.797Z,28.73
2022-10-13T06:07:55.889Z,22.97
2022-10-13T06:10:26.164Z,24.27
2022-10-13T06:12:54.031Z,24.23
2022-10-13T06:15:27.812Z,27.70
2022-10-13T06:17:57.399Z,26.13
2022-10-13T06:20:27.401Z,27.03
2022-10-13T06:22:55.254Z,23.27
2022-10-13T06:25:23.216Z,26.60
2022-10-13T06:27:52.435Z,25.53
2022-10-13T06:30:20.307Z,26.73
2022-10-13T06:32:48.185Z,25.13
2022-10-13T06:35:16.123Z,25.43
2022-10-13T06:37:46.318Z,26.10
2022-10-13T06:40:14.775Z,26.50
2022-10-13T06:42:42.732Z,25.43
2022-10-13T06:45:12.335Z,23.40
2022-10-13T06:47:41.334Z,24.90
2022-10-13T06:50:10.024Z,25.47
2022-10-13T06:52:38.206Z,22.43
2022-10-13T06:55:07.017Z,25.83
2022-10-13T06:57:36.022Z,22.87
2022-10-13T07:00:08.187Z,22.50
2022-10-13T07:02:37.675Z,21.80
2022-10-13T07:05:06.243Z,26.30
2022-10-13T07:07:34.057Z,21.27
2022-10-13T07:10:02.052Z,20.23
2022-10-13T07:12:29.836Z,24.33
2022-10-13T07:14:57.714Z,25.00
2022-10-13T07:17:25.642Z,23.50
2022-10-13T07:19:57.828Z,22.63
2022-10-13T07:22:27.016Z,22.63
2022-10-13T15:53:21.656Z,49.15
2022-10-13T15:55:50.991Z,54.15
2022-10-13T15:58:18.805Z,49.45
2022-10-13T16:00:46.680Z,52.00
2022-10-13T16:03:17.919Z,62.85
2022-10-13T16:05:46.943Z,63.38
2022-10-13T16:08:14.837Z,57.83
2022-10-13T16:10:43.556Z,64.13
2022-10-13T16:13:15.366Z,62.05
2022-10-13T16:15:43.094Z,57.67
2022-10-13T16:18:10.817Z,59.53
2022-10-13T16:20:40.626Z,61.08
2022-10-13T16:23:08.329Z,62.38
2022-10-13T16:25:39.375Z,72.28
2022-10-13T16:28:07.150Z,79.03
2022-10-13T16:30:37.437Z,70.75
2022-10-13T16:33:05.308Z,71.25
2022-10-13T16:35:34.229Z,74.63
2022-10-13T16:38:02.078Z,74.65
2022-10-13T16:40:34.408Z,85.18
2022-10-13T16:43:02.082Z,79.68
2022-10-13T16:45:47.892Z,88.88
2022-10-13T16:48:18.854Z,87.95
2022-10-13T16:50:46.788Z,89.82
2022-10-13T16:53:14.546Z,113.63
2022-10-13T16:55:42.477Z,100.75
2022-10-13T16:58:10.635Z,108.43
2022-10-13T17:00:39.356Z,92.43
2022-10-13T17:03:07.766Z,105.68
2022-10-13T17:05:37.127Z,105.65
2022-10-13T17:08:05.262Z,99.18
2022-10-13T17:10:33.890Z,85.63
2022-10-13T17:13:01.991Z,93.00
2022-10-13T17:15:32.963Z,99.72
2022-10-13T17:18:00.649Z,90.55
2022-10-13T17:20:28.342Z,86.75
2022-10-13T17:22:57.428Z,89.25
2022-10-13T17:25:25.197Z,98.70
2022-10-13T17:27:53.075Z,106.45
2022-10-13T17:30:21.169Z,91.30
2022-10-13T17:32:49.768Z,83.05
2022-10-13T17:35:18.080Z,103.22
2022-10-13T17:37:49.067Z,116.72
2022-10-13T17:40:20.317Z,115.18
2022-10-13T17:42:48.097Z,137.40
2022-10-13T17:45:16.406Z,121.40
2022-10-13T17:47:48.393Z,139.83
2022-10-13T17:50:16.826Z,151.30
2022-10-13T17:52:44.659Z,131.32
2022-10-13T17:55:12.502Z,141.82
2022-10-13T17:57:41.548Z,149.35
2022-10-13T18:00:11.212Z,146.80
2022-10-13T18:02:42.844Z,153.35
2022-10-13T18:05:10.964Z,139.38
2022-10-13T18:07:38.857Z,162.40
2022-10-13T18:10:08.004Z,147.25
2022-10-13T18:12:35.736Z,126.57
2022-10-13T18:15:06.572Z,121.38
2022-10-13T18:17:34.330Z,174.80
2022-10-13T18:20:02.049Z,104.25
2022-10-13T18:22:31.174Z,112.45
2022-10-13T18:24:59.809Z,120.38
2022-10-13T18:27:27.507Z,139.48
2022-10-13T18:29:55.261Z,139.00
2022-10-13T18:32:25.530Z,144.57
2022-10-13T18:34:56.179Z,164.30
2022-10-13T18:37:24.057Z,119.75
2022-10-13T18:39:51.810Z,120.88
2022-10-13T18:42:19.580Z,132.38
2022-10-13T18:44:47.346Z,137.55
2022-10-13T18:47:15.167Z,132.55
2022-10-13T18:49:44.297Z,120.78
2022-10-13T18:52:12.816Z,153.77
2022-10-13T18:54:40.524Z,186.93
2022-10-13T18:57:08.247Z,118.65
2022-10-13T18:59:38.582Z,186.02
2022-10-13T19:02:06.877Z,154.23
2022-10-13T19:04:35.991Z,146.15
2022-10-13T19:07:05.060Z,127.45
2022-10-13T19:09:35.151Z,136.50
2022-10-13T19:12:03.024Z,109.55
2022-10-13T19:14:30.993Z,126.70
2022-10-13T19:17:01.943Z,144.40
2022-10-13T19:19:30.600Z,106.97
2022-10-13T19:21:58.565Z,139.73
2022-10-13T19:24:27.980Z,139.23
2022-10-13T19:26:56.145Z,117.75
2022-10-13T19:29:23.920Z,122.50
2022-10-13T19:31:51.698Z,117.03
2022-10-13T19:34:19.420Z,110.65
2022-10-13T19:36:47.429Z,123.00
2022-10-13T19:39:20.520Z,129.20
2022-10-13T19:41:52.583Z,153.32
2022-10-13T19:44:22.439Z,108.20
2022-10-13T19:46:52.221Z,197.02
2022-10-13T19:49:26.244Z,137.70
2022-10-13T19:51:55.927Z,145.20
2022-10-13T19:54:25.755Z,130.82
2022-10-13T19:56:57.356Z,129.02
2022-10-13T19:59:25.176Z,199.77
2022-10-13T20:01:52.908Z,176.85
2022-10-13T20:04:20.727Z,139.73
2022-10-13T20:06:49.893Z,174.48
2022-10-13T20:09:19.491Z,198.40
2022-10-13T20:11:50.714Z,134.25
2022-10-13T20:14:19.945Z,144.10
2022-10-13T20:16:47.920Z,147.77
2022-10-13T20:19:19.253Z,152.38
2022-10-13T20:21:48.114Z,124.85
2022-10-13T20:24:15.948Z,167.35
2022-10-13T20:26:43.773Z,107.50
2022-10-13T20:29:11.651Z,148.98
2022-10-13T20:31:41.517Z,156.07
2022-10-13T20:34:10.888Z,175.17
2022-10-13T20:36:39.417Z,180.00
2022-10-13T20:39:08.862Z,116.35
2022-10-13T20:41:36.740Z,119.68
2022-10-13T20:44:04.716Z,143.05
2022-10-13T20:46:34.544Z,147.65
2022-10-13T20:49:12.664Z,163.45
2022-10-13T20:51:42.575Z,172.82
2022-10-13T20:54:12.649Z,199.43
2022-10-13T20:56:41.206Z,179.65
2022-10-13T20:59:11.586Z,156.93
2022-10-13T21:01:39.364Z,152.27
2022-10-13T21:04:08.657Z,126.00
2022-10-13T21:06:36.902Z,143.15
2022-10-13T21:09:07.177Z,111.57
2022-10-13T21:11:36.208Z,125.82
2022-10-13T21:14:06.690Z,111.95
2022-10-13T21:16:35.813Z,108.70
2022-10-13T21:19:08.572Z,107.72
2022-10-13T21:21:36.701Z,133.27
2022-10-13T21:24:07.290Z,117.72
2022-10-13T21:26:36.832Z,123.53
2022-10-13T21:29:05.196Z,128.48
2022-10-13T21:31:35.351Z,119.35
2022-10-13T21:34:03.202Z,119.75
2022-10-13T21:36:33.523Z,130.32
2022-10-13T21:39:04.403Z,140.32
2022-10-13T21:41:33.988Z,111.60
2022-10-13T21:44:02.023Z,117.57
2022-10-13T21:46:34.330Z,125.45
2022-10-13T21:49:05.061Z,131.45
2022-10-13T21:51:37.690Z,115.93
2022-10-13T21:54:10.185Z,119.50
2022-10-13T21:56:39.992Z,109.90
2022-10-13T21:59:09.982Z,111.18
2022-10-13T22:01:37.711Z,122.35
2022-10-13T22:04:12.940Z,110.78
2022-10-13T22:06:42.590Z,123.80
2022-10-13T22:09:10.989Z,112.95
2022-10-13T22:11:39.828Z,121.15
2022-10-13T22:14:13.986Z,112.45
2022-10-13T22:16:44.631Z,127.28
2022-10-13T22:19:13.915Z,101.35
2022-10-13T22:21:45.708Z,118.90
2022-10-13T22:24:17.180Z,96.50
2022-10-13T22:26:47.504Z,91.05
2022-10-13T22:29:19.454Z,97.65
2022-10-13T22:31:49.090Z,84.95
2022-10-13T22:34:17.720Z,93.15
2022-10-13T22:36:46.828Z,98.60
2022-10-13T22:39:15.594Z,83.00
2022-10-13T22:41:43.782Z,78.13
2022-10-13T22:44:12.591Z,79.55
2022-10-13T22:46:40.726Z,83.10
2022-10-13T22:49:13.287Z,76.93
2022-10-13T22:51:41.012Z,74.15
2022-10-13T22:54:10.246Z,77.25
2022-10-13T22:56:39.929Z,69.78
2022-10-13T22:59:09.249Z,52.17
2022-10-13T23:01:37.074Z,55.22
2022-10-13T23:04:05.551Z,63.15
2022-10-13T23:06:35.876Z,44.55
2022-10-13T23:09:11.669Z,45.67
2022-10-13T23:11:40.369Z,48.83
2022-10-13T23:14:09.083Z,52.20
2022-10-13T23:16:36.941Z,52.03
2022-10-13T23:19:04.888Z,56.97
2022-10-13T23:21:32.645Z,53.13
2022-10-13T23:24:03.513Z,59.42
2022-10-13T23:26:33.902Z,66.18
2022-10-13T23:29:02.052Z,61.35
2022-10-13T23:31:29.915Z,67.43
2022-10-13T23:33:58.764Z,67.30
2022-10-13T23:36:29.221Z,64.40
2022-10-13T23:39:00.221Z,63.97
2022-10-13T23:41:29.083Z,64.93
2022-10-13T23:43:58.461Z,56.83
2022-10-13T23:46:26.305Z,65.03
2022-10-13T23:48:54.734Z,56.85
2022-10-13T23:51:25.088Z,55.78
2022-10-13T23:53:54.813Z,48.72
2022-10-13T23:56:23.439Z,51.25
2022-10-13T23:58:51.677Z,52.45
